METAR stanice u blizini

 

LYBE - Beograd / Surčin, Srbija
Ažurirano: 01/04/2020 21:30
Vedro
Vedro
 Pravac vetra JJI
Vetar: JJI 15 km/h
Temperatura: 4°C
Osećaj hladnoće: 1°C
Tačka rose: -5°C
Vlažnost: 52%
Pritisak: 1020 hPa
Pregled: Vedro
Vidljivost: greater than 10 km
2020/04/01 19:30 LYBE 011930Z 15008KT CAVOK 04/M05 Q1020 NOSIG
LYBT - Beograd / Batajnica, Srbija
Ažurirano: 01/04/2020 21:30
Vedro
Vedro
 Pravac vetra JJI
Vetar: JJI 9 km/h
Temperatura: 3°C
Osećaj hladnoće: 0°C
Tačka rose: -5°C
Vlažnost: 56%
Pritisak: 1019 hPa
Pregled: Vedro
Vidljivost: greater than 10 km
2020/04/01 19:30 LYBT 011930Z 15005KT CAVOK 03/M05 Q1019 NOSIG
LYVR - Vršac, Srbija
Ažurirano: 01/04/2020 21:30
Vedro
Vedro
 Pravac vetra J
Vetar: J 6 km/h
Temperatura: 4°C
Tačka rose: -3°C
Vlažnost: 61%
Pritisak: 1019 hPa
Pregled: Vedro
Vidljivost: greater than 10 km
2020/04/01 19:30 LYVR 011930Z AUTO 19003KT 160V220 CAVOK 04/M03 Q1019
 
LYKV - Lađevci, Srbija
Ažurirano: 01/04/2020 21:30
Oblačno
Oblačno
 Pravac vetra varies
Vetar: varies 4 km/h
Temperatura: 1°C
Tačka rose: 1°C
Vlažnost: 100%
Pritisak: 1019 hPa
Oblaci: Oblačno
Vidljivost: 10 km
Cloud details: Partly Cloudy 457 m
Oblačno 1128 m
2020/04/01 19:30 LYKV 011930Z VRB02KT 9999 SCT015 OVC037 01/01 Q1019 NOSIG
LYNI - Niš, Srbija
Ažurirano: 01/04/2020 21:30
Light snow, Oblačno
Light snow, Oblačno
 Pravac vetra SZ
Vetar: SZ 17 km/h
Temperatura: 1°C
Osećaj hladnoće: -3°C
Tačka rose: -3°C
Vlažnost: 75%
Pritisak: 1018 hPa
Pregled: Light Snow
Oblaci: Oblačno
Vidljivost: 10 km
Cloud details: Mostly Cloudy 914 m
Oblačno 1951 m
2020/04/01 19:30 LYNI 011930Z 32009KT 9999 -SN BKN030 OVC064 01/M03 Q1018 NOSIG
BKPR - Priština, Srbija
Ažurirano: 01/04/2020 22:00
Light snow, Pretežno oblačno
Light snow, Pretežno oblačno
 Pravac vetra S
Vetar: S 11 km/h
Temperatura: -2°C
Osećaj hladnoće: -6°C
Tačka rose: -4°C
Vlažnost: 86%
Pritisak: 1015 hPa
Pregled: Light Snow
Oblaci: Mostly Cloudy
Vidljivost: 6 km
Cloud details: Partly Cloudy 457 m
Mostly Cloudy 914 m
2020/04/01 20:00 BKPR 012000Z 35006KT 6000 -SN SCT015 BKN030 M02/M04 Q1015 NOSIG RMK 17290095
 
LHPP - Pecs / Pogany, Hungary
Ažurirano: 01/04/2020 19:45
NOT Current
Vedro
Vedro
 Pravac vetra ISI
Vetar: ISI 4 km/h
Temperatura: 4°C
Tačka rose: -13°C
Vlažnost: 28%
Pritisak: 1018 hPa
Pregled: Vedro
Vidljivost: greater than 10 km
2020/04/01 17:45 LHPP 011745Z 06002KT CAVOK 04/M13 Q1018
LHUD - Szeged, Hungary
Ažurirano: 04/07/2019 01:45
NOT Current
Vedro
Vedro
 Pravac vetra S
Vetar: S 7 km/h
Temperatura: 18°C
Tačka rose: 13°C
Vlažnost: 73%
Pritisak: 1019 hPa
Pregled: Vedro
Vidljivost: greater than 10 km
2019/07/03 23:45 LHUD 032345Z 35004KT CAVOK 18/13 Q1019
LRTR - Timisoara, Romania
Ažurirano: 01/04/2020 21:30
Vedro
Vedro
 Pravac vetra JZ
Vetar: JZ 19 km/h
Temperatura: 3°C
Osećaj hladnoće: -2°C
Tačka rose: -5°C
Vlažnost: 56%
Pritisak: 1019 hPa
Pregled: Vedro
Vidljivost: greater than 10 km
2020/04/01 19:30 LRTR 011930Z 23010KT CAVOK 03/M05 Q1019
 
LRCV - Craiova, Romania
Ažurirano: 01/04/2020 21:30
Vedro
Vedro
 Pravac vetra SZ
Vetar: SZ 6 km/h
Temperatura: 1°C
Tačka rose: -1°C
Vlažnost: 87%
Pritisak: 1019 hPa
Pregled: Vedro
Vidljivost: greater than 10 km
2020/04/01 19:30 LRCV 011930Z 31003KT CAVOK 01/M01 Q1019 R27/29//95
LBSF - Sofia, Bulgaria
Ažurirano: 01/04/2020 21:30
Light snow, Oblačno
Light snow, Oblačno
 Pravac vetra JJI
Vetar: JJI 7 km/h
Temperatura: -1°C
Osećaj hladnoće: -4°C
Tačka rose: -2°C
Vlažnost: 93%
Pritisak: 1015 hPa
Pregled: Light Snow
Oblaci: Oblačno
Vidljivost: 4 km
Cloud details: Few Clouds 183 m
Oblačno 671 m
2020/04/01 19:30 LBSF 011930Z 15004KT 4000 -SN FEW006 OVC022 M01/M02 Q1015 R99/29//95 NOSIG
LWSK - Skoplje, Makedonija
Ažurirano: 01/04/2020 21:30
Sneg, Oblačno
Sneg, Oblačno
 Pravac vetra Z
Vetar: Z 4 km/h
Temperatura: 0°C
Tačka rose: 0°C
Vlažnost: 100%
Pritisak: 1015 hPa
Pregled: Sneg
Oblaci: Oblačno
Vidljivost: 2 km
Cloud details: Mostly Cloudy 91 m
Oblačno 610 m
2020/04/01 19:30 LWSK 011930Z 27002KT 2000 SN BKN003 OVC020 M00/M00 Q1015 R99/5/4094 NOSIG
 
LYPG - Podgorica, Crna Gora
Ažurirano: 01/04/2020 21:30
Mostly Cloudy
Mostly Cloudy
 Pravac vetra SSI
Vetar: SSI 20 km/h
Temperatura: 5°C
Osećaj hladnoće: 1°C
Tačka rose: -6°C
Vlažnost: 45%
Pritisak: 1014 hPa
Oblaci: Mostly Cloudy
Vidljivost: 10 km
Cloud details: Partly Cloudy 1219 m
Mostly Cloudy 2438 m
2020/04/01 19:30 LYPG 011930Z 03011KT 9999 SCT040 BKN080 05/M06 Q1014 NOSIG
LQSA - Sarajevo, Bosna i Hercegovina
Ažurirano: 01/04/2020 16:30
NOT Current
Mostly Cloudy
Mostly Cloudy
 Pravac vetra varies
Vetar: varies 4 km/h
Temperatura: 2°C
Tačka rose: -4°C
Vlažnost: 65%
Pritisak: 1017 hPa
Oblaci: Mostly Cloudy
Vidljivost: 10 km
Cloud details: Mostly Cloudy 1067 m
2020/04/01 14:30 LQSA 011430Z VRB02KT 9999 BKN035 02/M04 Q1017 NOSIG
LDOS - Osijek, Hrvatksa
Ažurirano: 01/04/2020 21:30
Vedro
Vedro
 Pravac vetra JJI
Vetar: JJI 17 km/h
Temperatura: 2°C
Osećaj hladnoće: -2°C
Tačka rose: -7°C
Vlažnost: 52%
Pritisak: 1019 hPa
Pregled: Vedro
Vidljivost: greater than 10 km
2020/04/01 19:30 LDOS 011930Z 16009KT CAVOK 02/M07 Q1019